Time;durP1;ratioP1;P1;durP2;ratioP2;P2;SDS_P1;SDS_P2;PMS_P1;PMS_P2;Temp;Humidity;BMP_temperature;BMP_pressure;BME280_temperature;BME280_humidity;BME280_pressure;Samples;Min_cycle;Max_cycle;Signal;HPM_P1;HPM_P2
2023/12/09 00:02:06;;;;;;;254.50;105.80;;;;;;;;;;106999;1251;60685;-79
2023/12/09 00:04:33;;;;;;;248.60;102.20;;;;;;;;;;106999;1251;60968;-79
2023/12/09 00:06:59;;;;;;;261.30;114.50;;;;;;;;;;107000;1251;59737;-78
2023/12/09 00:09:26;;;;;;;244.90;103.90;;;;;;;;;;107003;1251;59925;-79
2023/12/09 00:11:52;;;;;;;245.70;100.20;;;;;;;;;;106986;1251;60841;-79
2023/12/09 00:14:20;;;;;;;238.30;98.60;;;;;;;;;;107104;1251;59890;-78
2023/12/09 00:16:46;;;;;;;260.90;103.50;;;;;;;;;;106994;1251;59889;-79
2023/12/09 00:19:13;;;;;;;242.50;101.20;;;;;;;;;;107037;1251;61060;-78
2023/12/09 00:21:39;;;;;;;228.00;94.80;;;;;;;;;;107094;1251;59680;-78
2023/12/09 00:24:06;;;;;;;222.40;93.90;;;;;;;;;;107027;1251;61242;-78
2023/12/09 00:26:32;;;;;;;202.60;85.70;;;;;;;;;;107038;1251;60681;-78
2023/12/09 00:28:59;;;;;;;211.50;77.90;;;;;;;;;;107076;1251;61900;-79
2023/12/09 00:31:25;;;;;;;230.20;87.50;;;;;;;;;;106967;1251;62060;-79
2023/12/09 00:33:51;;;;;;;214.20;85.90;;;;;;;;;;106959;1251;62108;-78
2023/12/09 00:36:18;;;;;;;214.20;85.50;;;;;;;;;;106969;1251;59898;-79
2023/12/09 00:38:44;;;;;;;213.20;86.30;;;;;;;;;;106997;1251;61872;-79
2023/12/09 00:41:11;;;;;;;213.90;81.00;;;;;;;;;;107051;1251;62138;-79
2023/12/09 00:43:37;;;;;;;209.90;84.80;;;;;;;;;;106964;1251;61645;-78
2023/12/09 00:46:04;;;;;;;212.10;87.50;;;;;;;;;;106898;1251;61071;-79
2023/12/09 00:48:31;;;;;;;215.50;87.10;;;;;;;;;;107020;1251;60932;-79
2023/12/09 00:50:57;;;;;;;213.60;86.90;;;;;;;;;;107052;1251;59809;-79
2023/12/09 00:53:24;;;;;;;211.30;89.20;;;;;;;;;;107869;1250;59196;-78
2023/12/09 00:55:50;;;;;;;227.60;94.60;;;;;;;;;;109519;1251;58813;-79
2023/12/09 00:58:17;;;;;;;200.70;87.10;;;;;;;;;;109548;1250;58930;-79
2023/12/09 01:00:43;;;;;;;211.10;85.60;;;;;;;;;;109566;1251;59532;-78
2023/12/09 01:03:10;;;;;;;188.60;82.90;;;;;;;;;;109531;1251;58954;-79
2023/12/09 01:05:36;;;;;;;212.90;86.70;;;;;;;;;;109535;1251;59161;-79
2023/12/09 01:08:02;;;;;;;210.20;80.10;;;;;;;;;;109539;1251;58949;-78
2023/12/09 01:10:29;;;;;;;201.00;82.90;;;;;;;;;;109521;1252;59362;-79
2023/12/09 01:12:55;;;;;;;205.20;87.40;;;;;;;;;;109577;1250;58920;-79
2023/12/09 01:15:22;;;;;;;219.80;87.40;;;;;;;;;;109580;1251;58928;-79
2023/12/09 01:17:48;;;;;;;198.20;83.20;;;;;;;;;;109578;1250;59199;-79
2023/12/09 01:20:15;;;;;;;196.70;85.60;;;;;;;;;;109539;1251;58945;-79
2023/12/09 01:22:41;;;;;;;227.80;87.00;;;;;;;;;;109541;1251;59032;-78
2023/12/09 01:25:08;;;;;;;214.20;85.80;;;;;;;;;;109524;1251;59076;-78
2023/12/09 01:27:34;;;;;;;202.60;82.80;;;;;;;;;;109574;1251;59361;-79
2023/12/09 01:30:02;;;;;;;194.20;80.40;;;;;;;;;;107821;1251;59835;-78
2023/12/09 01:32:28;;;;;;;210.20;84.40;;;;;;;;;;106894;1251;59775;-78
2023/12/09 01:34:55;;;;;;;204.50;86.50;;;;;;;;;;106967;1251;60913;-78
2023/12/09 01:37:22;;;;;;;215.20;82.30;;;;;;;;;;107010;1251;59780;-78
2023/12/09 01:39:48;;;;;;;204.20;79.60;;;;;;;;;;106954;1254;59671;-78
2023/12/09 01:42:15;;;;;;;197.70;73.20;;;;;;;;;;106982;1253;59808;-78
2023/12/09 01:44:41;;;;;;;195.90;78.70;;;;;;;;;;107026;1251;59790;-78
2023/12/09 01:47:08;;;;;;;181.20;78.80;;;;;;;;;;106953;1251;61539;-78
2023/12/09 01:49:35;;;;;;;190.00;78.20;;;;;;;;;;106951;1251;59400;-78
2023/12/09 01:52:01;;;;;;;200.00;80.50;;;;;;;;;;106924;1251;61948;-79
2023/12/09 01:54:28;;;;;;;199.00;78.70;;;;;;;;;;107013;1251;62220;-79
2023/12/09 01:56:54;;;;;;;178.90;75.10;;;;;;;;;;106998;1251;59691;-78
2023/12/09 01:59:21;;;;;;;214.50;87.60;;;;;;;;;;107005;1251;59242;-78
2023/12/09 02:01:47;;;;;;;212.10;82.20;;;;;;;;;;107008;1251;59165;-78
2023/12/09 02:04:14;;;;;;;191.10;80.80;;;;;;;;;;107087;1251;60539;-78
2023/12/09 02:06:40;;;;;;;200.20;78.40;;;;;;;;;;107008;1251;59992;-78
2023/12/09 02:09:07;;;;;;;172.80;77.80;;;;;;;;;;107057;1251;59787;-78
2023/12/09 02:11:50;;;;;;;170.30;72.20;;;;;;;;;;107005;1251;59850;-78
2023/12/09 02:14:18;;;;;;;181.80;72.20;;;;;;;;;;107453;1251;59199;-79
2023/12/09 02:16:51;;;;;;;146.10;57.60;;;;;;;;;;107013;1251;62948;-79
2023/12/09 02:19:17;;;;;;;188.70;74.60;;;;;;;;;;107074;1251;59809;-79
2023/12/09 02:21:57;;;;;;;166.60;68.00;;;;;;;;;;107055;1251;59845;-79
2023/12/09 02:24:23;;;;;;;183.60;74.90;;;;;;;;;;107014;1250;59811;-78
2023/12/09 02:26:50;;;;;;;164.40;69.40;;;;;;;;;;107012;1251;60985;-78
2023/12/09 02:29:17;;;;;;;178.10;71.40;;;;;;;;;;107075;1251;60732;-78
2023/12/09 02:31:43;;;;;;;162.30;70.90;;;;;;;;;;107144;1252;59986;-78
2023/12/09 02:34:10;;;;;;;160.90;62.00;;;;;;;;;;107080;1251;60814;-78
2023/12/09 02:36:36;;;;;;;156.20;59.90;;;;;;;;;;106997;1251;60814;-78
2023/12/09 02:39:03;;;;;;;147.90;63.80;;;;;;;;;;107040;1251;59743;-79
2023/12/09 02:41:30;;;;;;;137.80;56.90;;;;;;;;;;107107;1251;62224;-80
2023/12/09 02:43:56;;;;;;;148.00;60.30;;;;;;;;;;107173;1251;59783;-81
2023/12/09 02:46:23;;;;;;;150.40;56.60;;;;;;;;;;107534;1251;59248;-81
2023/12/09 02:48:49;;;;;;;141.90;61.50;;;;;;;;;;107574;1251;60772;-78
2023/12/09 02:51:15;;;;;;;143.40;55.40;;;;;;;;;;107007;1253;60720;-78
2023/12/09 02:53:44;;;;;;;137.80;55.10;;;;;;;;;;108202;1251;59137;-79
2023/12/09 02:56:10;;;;;;;135.20;60.50;;;;;;;;;;109551;1251;58955;-78
2023/12/09 02:58:37;;;;;;;145.10;59.80;;;;;;;;;;109524;1251;59062;-78
2023/12/09 03:01:04;;;;;;;137.80;56.10;;;;;;;;;;109598;1251;58918;-78
2023/12/09 03:03:30;;;;;;;83.80;32.00;;;;;;;;;;109546;1250;59019;-78
2023/12/09 03:05:57;;;;;;;125.10;54.40;;;;;;;;;;109571;1250;60439;-79
2023/12/09 03:08:23;;;;;;;117.70;49.00;;;;;;;;;;109592;1250;58949;-79
2023/12/09 03:10:50;;;;;;;124.90;50.00;;;;;;;;;;109582;1251;59153;-79
2023/12/09 03:13:16;;;;;;;136.80;55.90;;;;;;;;;;109588;1251;59127;-79
2023/12/09 03:15:43;;;;;;;132.30;55.00;;;;;;;;;;108589;1251;58860;-78
2023/12/09 03:18:09;;;;;;;122.90;52.10;;;;;;;;;;107013;1254;59815;-78
2023/12/09 03:20:36;;;;;;;122.40;55.80;;;;;;;;;;107047;1250;59744;-78
2023/12/09 03:23:02;;;;;;;116.80;51.70;;;;;;;;;;107028;1251;59831;-78
2023/12/09 03:25:29;;;;;;;109.40;48.60;;;;;;;;;;107012;1251;62059;-79
2023/12/09 03:27:55;;;;;;;133.30;57.60;;;;;;;;;;106960;1251;60919;-78
2023/12/09 03:30:21;;;;;;;109.40;51.00;;;;;;;;;;106983;1251;62046;-79
2023/12/09 03:32:48;;;;;;;119.10;52.90;;;;;;;;;;107025;1251;59674;-79
2023/12/09 03:35:14;;;;;;;112.20;50.00;;;;;;;;;;107025;1255;59775;-79
2023/12/09 03:37:41;;;;;;;123.00;50.00;;;;;;;;;;107082;1251;59854;-79
2023/12/09 03:40:10;;;;;;;114.10;46.70;;;;;;;;;;107082;1251;60718;-78
2023/12/09 03:42:36;;;;;;;118.20;48.10;;;;;;;;;;109566;1251;61216;-79
2023/12/09 03:45:03;;;;;;;112.80;44.30;;;;;;;;;;109578;1251;58947;-78
2023/12/09 03:47:29;;;;;;;120.60;51.80;;;;;;;;;;109568;1251;60841;-78
2023/12/09 03:49:56;;;;;;;120.00;48.70;;;;;;;;;;109565;1250;59151;-79
2023/12/09 03:52:23;;;;;;;117.10;47.30;;;;;;;;;;109545;1251;59023;-78
2023/12/09 03:54:50;;;;;;;108.60;46.80;;;;;;;;;;109618;1251;58914;-78
2023/12/09 03:57:17;;;;;;;102.40;43.50;;;;;;;;;;109579;1251;58970;-78
2023/12/09 03:59:43;;;;;;;109.70;44.00;;;;;;;;;;107744;1251;61796;-78
2023/12/09 04:02:10;;;;;;;92.80;40.50;;;;;;;;;;106991;1251;61892;-78
2023/12/09 04:07:59;;;;;;;86.80;37.10;;;;;;;;;;107008;1251;61903;-79
2023/12/09 04:10:26;;;;;;;99.40;41.80;;;;;;;;;;107000;1251;59842;-78
2023/12/09 04:12:52;;;;;;;96.70;39.60;;;;;;;;;;106919;1251;59822;-78
2023/12/09 04:15:18;;;;;;;103.70;44.10;;;;;;;;;;106995;1251;59737;-79
2023/12/09 04:17:46;;;;;;;94.00;41.20;;;;;;;;;;106953;1255;59182;-78
2023/12/09 04:20:12;;;;;;;83.80;39.80;;;;;;;;;;106974;1251;61940;-78
2023/12/09 04:22:39;;;;;;;93.50;42.40;;;;;;;;;;107003;1250;60735;-81
2023/12/09 04:25:05;;;;;;;77.20;40.90;;;;;;;;;;107535;1255;60381;-78
2023/12/09 04:27:32;;;;;;;86.10;41.90;;;;;;;;;;109318;1251;59169;-79
2023/12/09 04:29:59;;;;;;;87.20;42.40;;;;;;;;;;106968;1251;59745;-78
2023/12/09 04:32:27;;;;;;;98.00;36.90;;;;;;;;;;106976;1251;60752;-78
2023/12/09 04:34:54;;;;;;;83.60;36.80;;;;;;;;;;107003;1251;59905;-78
2023/12/09 04:37:20;;;;;;;88.60;39.80;;;;;;;;;;106963;1251;59875;-78
2023/12/09 04:39:47;;;;;;;71.80;34.10;;;;;;;;;;107035;1251;59852;-79
2023/12/09 04:42:13;;;;;;;81.50;36.60;;;;;;;;;;106995;1253;59322;-79
2023/12/09 04:44:40;;;;;;;75.90;33.70;;;;;;;;;;107001;1251;59793;-78
2023/12/09 04:47:07;;;;;;;70.20;32.10;;;;;;;;;;107048;1251;60758;-78
2023/12/09 04:49:33;;;;;;;81.20;33.00;;;;;;;;;;107012;1251;60345;-79
2023/12/09 04:52:00;;;;;;;75.40;36.70;;;;;;;;;;107070;1251;59887;-79
2023/12/09 04:54:26;;;;;;;75.60;33.20;;;;;;;;;;107036;1251;59689;-78
2023/12/09 04:56:53;;;;;;;77.30;38.50;;;;;;;;;;107058;1251;59737;-79
2023/12/09 04:59:20;;;;;;;85.60;39.20;;;;;;;;;;107081;1251;59638;-79
2023/12/09 05:01:47;;;;;;;80.80;36.30;;;;;;;;;;107011;1251;60774;-79
2023/12/09 05:04:14;;;;;;;87.80;40.10;;;;;;;;;;107021;1251;59697;-79
2023/12/09 05:06:41;;;;;;;88.00;42.00;;;;;;;;;;107059;1251;59771;-78
2023/12/09 05:09:08;;;;;;;94.50;40.80;;;;;;;;;;107053;1254;62406;-78
2023/12/09 05:11:35;;;;;;;96.90;43.40;;;;;;;;;;107007;1251;59554;-79
2023/12/09 05:14:01;;;;;;;103.80;42.90;;;;;;;;;;107105;1250;61552;-79
2023/12/09 05:16:28;;;;;;;88.10;39.70;;;;;;;;;;107055;1251;59236;-78
2023/12/09 05:18:54;;;;;;;84.10;38.60;;;;;;;;;;107088;1251;60727;-79
2023/12/09 05:21:20;;;;;;;88.60;39.80;;;;;;;;;;107078;1251;60878;-79
2023/12/09 05:23:47;;;;;;;87.70;39.20;;;;;;;;;;107152;1251;59778;-79
2023/12/09 05:26:21;;;;;;;86.00;38.30;;;;;;;;;;107073;1251;60936;-78
2023/12/09 05:28:51;;;;;;;84.80;36.40;;;;;;;;;;107036;1251;59777;-78
2023/12/09 05:31:18;;;;;;;103.60;49.30;;;;;;;;;;106944;1251;59204;-79
2023/12/09 05:33:44;;;;;;;91.60;43.90;;;;;;;;;;106938;1251;60609;-78
2023/12/09 05:36:11;;;;;;;87.00;35.70;;;;;;;;;;107008;1251;60329;-78
2023/12/09 05:38:38;;;;;;;74.30;35.20;;;;;;;;;;106942;1251;59729;-78
2023/12/09 05:41:04;;;;;;;85.50;36.20;;;;;;;;;;107015;1251;59796;-79
2023/12/09 05:43:31;;;;;;;75.50;33.60;;;;;;;;;;106920;1251;59830;-78
2023/12/09 05:45:57;;;;;;;80.90;35.50;;;;;;;;;;106929;1251;59683;-78
2023/12/09 05:48:24;;;;;;;93.70;38.90;;;;;;;;;;106975;1251;59889;-78
2023/12/09 05:50:50;;;;;;;77.40;36.30;;;;;;;;;;107020;1253;59230;-79
2023/12/09 05:53:17;;;;;;;86.00;37.50;;;;;;;;;;106958;1254;60282;-78
2023/12/09 05:55:43;;;;;;;90.80;38.40;;;;;;;;;;106971;1251;59719;-79
2023/12/09 05:58:10;;;;;;;86.70;40.40;;;;;;;;;;107017;1254;59343;-79
2023/12/09 06:00:37;;;;;;;88.40;38.50;;;;;;;;;;107070;1251;59752;-79
2023/12/09 06:03:03;;;;;;;89.30;37.90;;;;;;;;;;107074;1251;60659;-77
2023/12/09 06:05:30;;;;;;;90.10;43.50;;;;;;;;;;107144;1251;60827;-77
2023/12/09 06:07:56;;;;;;;93.60;39.10;;;;;;;;;;107435;1251;59390;-79
2023/12/09 06:10:23;;;;;;;83.70;38.60;;;;;;;;;;107573;1251;62837;-78
2023/12/09 06:12:50;;;;;;;76.60;33.70;;;;;;;;;;107059;1251;61095;-78
2023/12/09 06:15:16;;;;;;;105.80;45.10;;;;;;;;;;107075;1251;61002;-79
2023/12/09 06:17:42;;;;;;;100.90;42.10;;;;;;;;;;107011;1251;59826;-78
2023/12/09 06:20:09;;;;;;;107.50;50.10;;;;;;;;;;107019;1251;60664;-78
2023/12/09 06:22:36;;;;;;;97.40;46.60;;;;;;;;;;107116;1251;62068;-79
2023/12/09 06:25:02;;;;;;;78.60;36.20;;;;;;;;;;107067;1251;59811;-78
2023/12/09 06:27:29;;;;;;;97.50;46.10;;;;;;;;;;107075;1253;59876;-79
2023/12/09 06:29:55;;;;;;;93.70;42.00;;;;;;;;;;107046;1251;61019;-79
2023/12/09 06:32:21;;;;;;;89.00;40.80;;;;;;;;;;106902;1253;171325;-79
2023/12/09 06:34:48;;;;;;;82.60;39.20;;;;;;;;;;107137;1251;63206;-79
2023/12/09 06:37:14;;;;;;;80.60;37.60;;;;;;;;;;107032;1253;59686;-78
2023/12/09 06:39:41;;;;;;;93.60;39.10;;;;;;;;;;106978;1250;61683;-78
2023/12/09 06:42:07;;;;;;;99.40;44.20;;;;;;;;;;106969;1252;60786;-78
2023/12/09 06:44:34;;;;;;;87.80;41.10;;;;;;;;;;107004;1253;60426;-79
2023/12/09 06:47:01;;;;;;;92.10;44.00;;;;;;;;;;106984;1253;60949;-79
2023/12/09 06:49:27;;;;;;;97.70;43.50;;;;;;;;;;106991;1255;60558;-78
2023/12/09 06:51:54;;;;;;;113.40;52.30;;;;;;;;;;106963;1253;59812;-78
2023/12/09 06:54:20;;;;;;;112.50;51.50;;;;;;;;;;106984;1251;59822;-79
2023/12/09 06:56:47;;;;;;;114.20;52.30;;;;;;;;;;106992;1253;59131;-79
2023/12/09 06:59:13;;;;;;;109.10;52.60;;;;;;;;;;107007;1251;59507;-79
2023/12/09 07:01:42;;;;;;;102.00;48.90;;;;;;;;;;107092;1251;59676;-78
2023/12/09 07:04:09;;;;;;;93.80;44.20;;;;;;;;;;106995;1252;61205;-78
2023/12/09 07:06:35;;;;;;;108.50;49.20;;;;;;;;;;107004;1254;60800;-79
2023/12/09 07:09:02;;;;;;;137.30;54.60;;;;;;;;;;107004;1253;60730;-79
2023/12/09 07:11:29;;;;;;;124.80;53.70;;;;;;;;;;107085;1253;62180;-79
2023/12/09 07:13:55;;;;;;;100.70;48.90;;;;;;;;;;107108;1253;60962;-79
2023/12/09 07:16:22;;;;;;;92.80;44.00;;;;;;;;;;107020;1250;60891;-78
2023/12/09 07:18:48;;;;;;;94.10;41.50;;;;;;;;;;107010;1251;59798;-78
2023/12/09 07:21:15;;;;;;;128.50;56.70;;;;;;;;;;107058;1252;60601;-79
2023/12/09 07:23:41;;;;;;;129.90;63.70;;;;;;;;;;107163;1255;62170;-78
2023/12/09 07:26:08;;;;;;;99.80;49.80;;;;;;;;;;107022;1251;59834;-77
2023/12/09 07:28:35;;;;;;;119.30;55.60;;;;;;;;;;107034;1250;61027;-78
2023/12/09 07:31:02;;;;;;;142.20;61.80;;;;;;;;;;107011;1253;59909;-79
2023/12/09 07:33:29;;;;;;;148.50;70.20;;;;;;;;;;107044;1255;61599;-79
2023/12/09 07:35:56;;;;;;;155.70;71.10;;;;;;;;;;107001;1253;61950;-78
2023/12/09 07:38:22;;;;;;;188.50;91.80;;;;;;;;;;107010;1253;59739;-78
2023/12/09 07:40:49;;;;;;;132.70;66.30;;;;;;;;;;107057;1254;60960;-79
2023/12/09 07:43:15;;;;;;;124.60;62.60;;;;;;;;;;107094;1253;60148;-79
2023/12/09 07:45:42;;;;;;;125.40;59.40;;;;;;;;;;107104;1254;59721;-78
2023/12/09 07:48:09;;;;;;;166.90;88.50;;;;;;;;;;107044;1251;63172;-79
2023/12/09 07:50:35;;;;;;;482.20;223.20;;;;;;;;;;107111;1253;59826;-78
2023/12/09 07:53:02;;;;;;;471.10;237.30;;;;;;;;;;107045;1251;59874;-79
2023/12/09 07:55:28;;;;;;;200.00;100.50;;;;;;;;;;107024;1253;60773;-79
2023/12/09 07:57:56;;;;;;;275.20;112.10;;;;;;;;;;107111;1251;60843;-78
2023/12/09 08:00:22;;;;;;;401.30;156.90;;;;;;;;;;107080;1251;60520;-79
2023/12/09 08:02:49;;;;;;;609.50;284.50;;;;;;;;;;107092;1253;59872;-79
2023/12/09 08:05:15;;;;;;;722.50;339.00;;;;;;;;;;108081;1251;59736;-79
2023/12/09 08:07:42;;;;;;;583.20;267.00;;;;;;;;;;109572;1251;58981;-79
2023/12/09 08:10:09;;;;;;;771.90;335.40;;;;;;;;;;109597;1251;58864;-79
2023/12/09 08:12:35;;;;;;;372.90;163.10;;;;;;;;;;109563;1251;60731;-78
2023/12/09 08:15:02;;;;;;;194.60;83.20;;;;;;;;;;109581;1251;59189;-79
2023/12/09 08:17:29;;;;;;;163.50;82.20;;;;;;;;;;109548;1251;59113;-79
2023/12/09 08:19:56;;;;;;;509.80;219.40;;;;;;;;;;109571;1250;58886;-79
2023/12/09 08:22:22;;;;;;;221.60;105.90;;;;;;;;;;109598;1250;58847;-80
2023/12/09 08:24:49;;;;;;;376.70;157.10;;;;;;;;;;107804;1253;59719;-79
2023/12/09 08:27:15;;;;;;;423.60;181.00;;;;;;;;;;107050;1251;60852;-79
2023/12/09 08:29:42;;;;;;;383.30;159.40;;;;;;;;;;107027;1254;59547;-78
2023/12/09 08:32:09;;;;;;;350.30;154.80;;;;;;;;;;107010;1252;59811;-79
2023/12/09 08:34:35;;;;;;;198.00;94.90;;;;;;;;;;107054;1251;60798;-80
2023/12/09 08:37:02;;;;;;;165.80;82.40;;;;;;;;;;107049;1253;59828;-80
2023/12/09 08:39:28;;;;;;;158.70;80.60;;;;;;;;;;107051;1253;60836;-80
2023/12/09 08:41:55;;;;;;;156.40;77.80;;;;;;;;;;107120;1251;59215;-80
2023/12/09 08:44:22;;;;;;;161.10;78.90;;;;;;;;;;107004;1253;59820;-80
2023/12/09 08:46:51;;;;;;;143.80;72.20;;;;;;;;;;107112;1252;59741;-80
2023/12/09 08:49:17;;;;;;;;;;;;;;;;;;107071;1254;61669;-80
2023/12/09 08:51:44;;;;;;;141.80;67.60;;;;;;;;;;107018;1252;59759;-79
2023/12/09 08:54:11;;;;;;;144.50;67.80;;;;;;;;;;107071;1253;61133;-80
2023/12/09 08:56:38;;;;;;;158.30;69.60;;;;;;;;;;106981;1251;61301;-79
2023/12/09 08:59:07;;;;;;;136.90;64.00;;;;;;;;;;107064;1253;59106;-78
2023/12/09 09:01:34;;;;;;;136.00;65.50;;;;;;;;;;107088;1251;60757;-79
2023/12/09 09:04:01;;;;;;;137.80;71.70;;;;;;;;;;107038;1251;59826;-80
2023/12/09 09:06:28;;;;;;;148.80;72.40;;;;;;;;;;107060;1251;60728;-80
2023/12/09 09:08:54;;;;;;;142.60;62.80;;;;;;;;;;107043;1251;60876;-79
2023/12/09 09:11:21;;;;;;;126.80;60.00;;;;;;;;;;107120;1254;62013;-79
2023/12/09 09:13:47;;;;;;;117.50;55.50;;;;;;;;;;107129;1251;59698;-80
2023/12/09 09:16:14;;;;;;;108.10;51.30;;;;;;;;;;107049;1251;59447;-80
2023/12/09 09:18:42;;;;;;;139.40;64.20;;;;;;;;;;107017;1251;60051;-79
2023/12/09 09:21:09;;;;;;;139.40;67.80;;;;;;;;;;107088;1255;59817;-80
2023/12/09 09:23:36;;;;;;;148.20;68.20;;;;;;;;;;107025;1253;59819;-79
2023/12/09 09:26:02;;;;;;;160.80;76.40;;;;;;;;;;106931;1251;59878;-80
2023/12/09 09:28:29;;;;;;;165.50;77.50;;;;;;;;;;107023;1253;59823;-80
2023/12/09 09:30:55;;;;;;;179.90;98.80;;;;;;;;;;106929;1253;61917;-79
2023/12/09 09:33:21;;;;;;;176.90;88.20;;;;;;;;;;106953;1251;61052;-80
2023/12/09 09:35:51;;;;;;;180.40;88.20;;;;;;;;;;107039;1253;59940;-80
2023/12/09 09:38:17;;;;;;;185.30;83.40;;;;;;;;;;106959;1250;63047;-80
2023/12/09 09:40:44;;;;;;;167.10;80.80;;;;;;;;;;107169;1251;61918;-79
2023/12/09 09:43:16;;;;;;;177.60;85.20;;;;;;;;;;107010;1253;59853;-79
2023/12/09 09:45:42;;;;;;;175.30;78.00;;;;;;;;;;107020;1254;59848;-80
2023/12/09 09:48:09;;;;;;;166.00;80.30;;;;;;;;;;107063;1254;59685;-80
2023/12/09 09:50:40;;;;;;;153.50;75.60;;;;;;;;;;106967;1251;61987;-80
2023/12/09 09:53:11;;;;;;;164.70;78.80;;;;;;;;;;107029;1254;61161;-80
2023/12/09 09:55:44;;;;;;;164.20;79.00;;;;;;;;;;107042;1253;59824;-79
2023/12/09 09:58:12;;;;;;;176.60;86.70;;;;;;;;;;107023;1255;60969;-80
2023/12/09 10:00:39;;;;;;;197.20;91.30;;;;;;;;;;106983;1251;60784;-80
2023/12/09 10:03:06;;;;;;;204.00;97.00;;;;;;;;;;106986;1253;62314;-79
2023/12/09 10:05:33;;;;;;;160.10;75.20;;;;;;;;;;107033;1252;59723;-80
2023/12/09 10:07:59;;;;;;;162.10;78.30;;;;;;;;;;107015;1253;60934;-80
2023/12/09 10:10:26;;;;;;;158.90;74.80;;;;;;;;;;107014;1253;60844;-80
2023/12/09 10:12:52;;;;;;;147.90;72.90;;;;;;;;;;107026;1251;59937;-79
2023/12/09 10:15:19;;;;;;;150.40;71.60;;;;;;;;;;106977;1252;59841;-80
2023/12/09 10:17:45;;;;;;;153.90;75.80;;;;;;;;;;106960;1251;59841;-80
2023/12/09 10:20:12;;;;;;;155.90;74.40;;;;;;;;;;106997;1251;59826;-80
2023/12/09 10:22:38;;;;;;;135.00;67.70;;;;;;;;;;107002;1253;59915;-80
2023/12/09 10:25:05;;;;;;;129.70;60.50;;;;;;;;;;107021;1252;59882;-79
2023/12/09 10:27:31;;;;;;;126.20;61.70;;;;;;;;;;106994;1251;62867;-80
2023/12/09 10:29:58;;;;;;;113.90;56.20;;;;;;;;;;106996;1253;59825;-80
2023/12/09 10:32:25;;;;;;;115.90;55.90;;;;;;;;;;107026;1251;60906;-79
2023/12/09 10:34:51;;;;;;;122.00;57.00;;;;;;;;;;106903;1250;60906;-79
2023/12/09 10:37:17;;;;;;;132.00;62.20;;;;;;;;;;106997;1253;59884;-80
2023/12/09 10:39:45;;;;;;;144.60;68.10;;;;;;;;;;106983;1255;62041;-79
2023/12/09 10:42:11;;;;;;;136.30;66.50;;;;;;;;;;106932;1254;59913;-80
2023/12/09 10:44:38;;;;;;;147.50;73.80;;;;;;;;;;106943;1250;60903;-80
2023/12/09 10:47:04;;;;;;;179.60;83.40;;;;;;;;;;106924;1253;60588;-79
2023/12/09 10:49:30;;;;;;;190.90;98.70;;;;;;;;;;106976;1251;59189;-80
2023/12/09 10:51:57;;;;;;;214.30;106.60;;;;;;;;;;106956;1255;60302;-80
2023/12/09 10:54:24;;;;;;;189.70;96.20;;;;;;;;;;107073;1252;59831;-80
2023/12/09 10:56:50;;;;;;;188.90;97.10;;;;;;;;;;107018;1256;60491;-80
2023/12/09 10:59:17;;;;;;;189.60;98.30;;;;;;;;;;107023;1251;59227;-79
2023/12/09 11:01:47;;;;;;;174.90;94.30;;;;;;;;;;107065;1253;59358;-80
2023/12/09 11:04:13;;;;;;;167.00;84.00;;;;;;;;;;109552;1253;61861;-80
2023/12/09 11:06:44;;;;;;;163.30;81.10;;;;;;;;;;109565;1251;58802;-80
2023/12/09 11:09:13;;;;;;;177.80;86.30;;;;;;;;;;109559;1252;60665;-80
2023/12/09 11:11:43;;;;;;;178.20;91.90;;;;;;;;;;109478;1253;59101;-80
2023/12/09 11:14:09;;;;;;;197.90;97.20;;;;;;;;;;108171;1253;59623;-80
2023/12/09 11:16:39;;;;;;;190.80;98.70;;;;;;;;;;107275;1251;62741;-80
2023/12/09 11:19:08;;;;;;;186.60;95.50;;;;;;;;;;107280;1251;59089;-80
2023/12/09 11:21:34;;;;;;;184.90;97.20;;;;;;;;;;107179;1253;59847;-79
2023/12/09 11:24:01;;;;;;;177.50;88.10;;;;;;;;;;107287;1255;61234;-81
2023/12/09 11:26:28;;;;;;;191.10;94.40;;;;;;;;;;107206;1253;59715;-81
2023/12/09 11:29:01;;;;;;;178.30;91.10;;;;;;;;;;107037;1253;61907;-80
2023/12/09 11:31:35;;;;;;;173.70;87.70;;;;;;;;;;107189;1254;60241;-80
2023/12/09 11:34:01;;;;;;;156.70;79.40;;;;;;;;;;106788;1251;59831;-80
2023/12/09 11:36:28;;;;;;;160.40;84.00;;;;;;;;;;106677;1253;60275;-80
2023/12/09 11:38:54;;;;;;;154.70;78.30;;;;;;;;;;106671;1255;61552;-80
2023/12/09 11:41:20;;;;;;;144.00;77.00;;;;;;;;;;106666;1255;60971;-80
2023/12/09 11:43:47;;;;;;;146.10;78.80;;;;;;;;;;106624;1255;60696;-80
2023/12/09 11:46:13;;;;;;;151.70;79.90;;;;;;;;;;106630;1251;59690;-80
2023/12/09 11:48:40;;;;;;;138.10;69.90;;;;;;;;;;106691;1253;60175;-79
2023/12/09 11:51:07;;;;;;;137.10;72.80;;;;;;;;;;106611;1255;59202;-79
2023/12/09 11:53:34;;;;;;;147.10;75.80;;;;;;;;;;106930;1251;60830;-80
2023/12/09 11:56:00;;;;;;;132.10;68.50;;;;;;;;;;106710;1253;59832;-80
2023/12/09 11:58:27;;;;;;;137.60;67.20;;;;;;;;;;106728;1255;59782;-80
2023/12/09 12:00:53;;;;;;;139.50;70.90;;;;;;;;;;106677;1251;59752;-80
2023/12/09 12:03:20;;;;;;;127.40;70.90;;;;;;;;;;106771;1254;59943;-79
2023/12/09 12:05:47;;;;;;;144.20;76.30;;;;;;;;;;106758;1251;62064;-80
2023/12/09 12:08:15;;;;;;;165.10;84.20;;;;;;;;;;106725;1254;61872;-79
2023/12/09 12:10:42;;;;;;;171.80;84.90;;;;;;;;;;106808;1251;59680;-80
2023/12/09 12:13:08;;;;;;;150.30;79.10;;;;;;;;;;107091;1255;59876;-80
2023/12/09 12:15:35;;;;;;;157.10;77.10;;;;;;;;;;106860;1251;59837;-79
2023/12/09 12:18:20;;;;;;;206.30;100.40;;;;;;;;;;106737;1254;60871;-80
2023/12/09 12:20:47;;;;;;;406.20;176.20;;;;;;;;;;106831;1256;59938;-80
2023/12/09 12:23:14;;;;;;;435.80;190.00;;;;;;;;;;106750;1255;59699;-80
2023/12/09 12:25:41;;;;;;;430.10;184.60;;;;;;;;;;106641;1256;59907;-79
2023/12/09 12:28:07;;;;;;;293.00;140.10;;;;;;;;;;106651;1251;59735;-80
2023/12/09 12:30:34;;;;;;;186.40;94.10;;;;;;;;;;106651;1252;59888;-80
2023/12/09 12:33:00;;;;;;;172.00;88.30;;;;;;;;;;106735;1251;59838;-79
2023/12/09 12:35:27;;;;;;;185.50;95.70;;;;;;;;;;106676;1251;60212;-80
2023/12/09 12:37:55;;;;;;;194.10;101.00;;;;;;;;;;106699;1255;60682;-80
2023/12/09 12:40:21;;;;;;;171.90;87.20;;;;;;;;;;106755;1251;59836;-80
2023/12/09 12:42:48;;;;;;;158.10;84.50;;;;;;;;;;106600;1251;62949;-80
2023/12/09 12:45:18;;;;;;;157.10;78.90;;;;;;;;;;106558;1251;59887;-80
2023/12/09 12:47:45;;;;;;;122.90;67.00;;;;;;;;;;106712;1251;62059;-80
2023/12/09 12:50:11;;;;;;;122.80;61.70;;;;;;;;;;106708;1251;60790;-79
2023/12/09 12:52:38;;;;;;;111.10;57.80;;;;;;;;;;106756;1255;59737;-80
2023/12/09 12:55:05;;;;;;;116.00;61.20;;;;;;;;;;106749;1250;61919;-80
2023/12/09 12:57:32;;;;;;;123.10;65.10;;;;;;;;;;106796;1254;59800;-79
2023/12/09 12:59:58;;;;;;;109.80;59.60;;;;;;;;;;106767;1251;60376;-79
2023/12/09 13:02:25;;;;;;;163.40;79.50;;;;;;;;;;106654;1251;59911;-80
2023/12/09 13:04:51;;;;;;;150.60;75.60;;;;;;;;;;106692;1251;59926;-80
2023/12/09 13:07:18;;;;;;;149.30;76.00;;;;;;;;;;106646;1251;60927;-80
2023/12/09 13:09:44;;;;;;;166.50;80.90;;;;;;;;;;106680;1254;59847;-80
2023/12/09 13:12:11;;;;;;;155.80;82.10;;;;;;;;;;106510;1255;60678;-80
2023/12/09 13:14:37;;;;;;;144.70;73.70;;;;;;;;;;106674;1251;59831;-79
2023/12/09 13:17:04;;;;;;;163.30;84.30;;;;;;;;;;106658;1253;59903;-79
2023/12/09 13:19:31;;;;;;;153.70;79.50;;;;;;;;;;106633;1251;61962;-79
2023/12/09 13:21:57;;;;;;;138.90;73.50;;;;;;;;;;106820;1253;59825;-79
2023/12/09 13:24:24;;;;;;;142.90;72.30;;;;;;;;;;106882;1253;60947;-80
2023/12/09 13:26:51;;;;;;;131.70;65.20;;;;;;;;;;106985;1254;59705;-80
2023/12/09 13:29:18;;;;;;;119.30;60.60;;;;;;;;;;107028;1251;59765;-80
2023/12/09 13:31:44;;;;;;;124.30;60.70;;;;;;;;;;107049;1251;62730;-79
2023/12/09 13:34:11;;;;;;;123.80;62.40;;;;;;;;;;107150;1251;59703;-79
2023/12/09 13:36:40;;;;;;;110.90;57.40;;;;;;;;;;107176;1251;59721;-79
2023/12/09 13:39:11;;;;;;;89.20;47.50;;;;;;;;;;109561;1251;59281;-79
2023/12/09 13:41:38;;;;;;;82.60;39.60;;;;;;;;;;107666;1251;61012;-80
2023/12/09 13:44:04;;;;;;;67.60;38.10;;;;;;;;;;107173;1251;61003;-79
2023/12/09 13:46:30;;;;;;;74.20;39.50;;;;;;;;;;107161;1251;59934;-80
2023/12/09 13:48:57;;;;;;;73.00;38.90;;;;;;;;;;107167;1251;59771;-80
2023/12/09 13:51:23;;;;;;;72.80;38.00;;;;;;;;;;107524;1251;60917;-80
2023/12/09 13:53:50;;;;;;;68.50;36.10;;;;;;;;;;107975;1257;59997;-80
2023/12/09 13:56:16;;;;;;;55.50;28.50;;;;;;;;;;108011;1251;59249;-80